sensor_id;sensor_type;location;lat;lon;timestamp;P1;durP1;ratioP1;P2;durP2;ratioP2
18505;SDS011;9382;53.242;10.438;2023-02-01T00:01:34;36.00;;;7.10;;
18505;SDS011;9382;53.242;10.438;2023-02-01T00:04:01;31.33;;;5.83;;
18505;SDS011;9382;53.242;10.438;2023-02-01T00:06:30;23.07;;;5.20;;
18505;SDS011;9382;53.242;10.438;2023-02-01T00:08:56;26.23;;;5.07;;
18505;SDS011;9382;53.242;10.438;2023-02-01T00:11:23;22.97;;;5.40;;
18505;SDS011;9382;53.242;10.438;2023-02-01T00:13:50;24.10;;;4.90;;
18505;SDS011;9382;53.242;10.438;2023-02-01T00:16:18;22.10;;;5.10;;
18505;SDS011;9382;53.242;10.438;2023-02-01T00:18:47;28.37;;;5.70;;
18505;SDS011;9382;53.242;10.438;2023-02-01T00:21:15;25.20;;;5.40;;
18505;SDS011;9382;53.242;10.438;2023-02-01T00:23:45;22.37;;;5.27;;
18505;SDS011;9382;53.242;10.438;2023-02-01T00:26:13;30.23;;;5.33;;
18505;SDS011;9382;53.242;10.438;2023-02-01T00:28:42;27.33;;;5.70;;
18505;SDS011;9382;53.242;10.438;2023-02-01T00:31:08;24.83;;;5.50;;
18505;SDS011;9382;53.242;10.438;2023-02-01T00:33:35;20.47;;;4.93;;
18505;SDS011;9382;53.242;10.438;2023-02-01T00:36:03;32.37;;;6.03;;
18505;SDS011;9382;53.242;10.438;2023-02-01T00:38:32;25.10;;;4.90;;
18505;SDS011;9382;53.242;10.438;2023-02-01T00:41:04;24.87;;;5.87;;
18505;SDS011;9382;53.242;10.438;2023-02-01T00:43:33;20.07;;;5.10;;
18505;SDS011;9382;53.242;10.438;2023-02-01T00:46:00;24.80;;;6.00;;
18505;SDS011;9382;53.242;10.438;2023-02-01T00:48:27;30.43;;;5.67;;
18505;SDS011;9382;53.242;10.438;2023-02-01T00:50:58;35.90;;;6.47;;
18505;SDS011;9382;53.242;10.438;2023-02-01T00:53:25;30.67;;;5.97;;
18505;SDS011;9382;53.242;10.438;2023-02-01T00:55:52;24.03;;;5.37;;
18505;SDS011;9382;53.242;10.438;2023-02-01T00:58:20;25.40;;;5.70;;
18505;SDS011;9382;53.242;10.438;2023-02-01T01:00:48;25.77;;;4.90;;
18505;SDS011;9382;53.242;10.438;2023-02-01T01:03:15;26.90;;;5.47;;
18505;SDS011;9382;53.242;10.438;2023-02-01T01:05:45;27.30;;;5.57;;
18505;SDS011;9382;53.242;10.438;2023-02-01T01:08:12;24.30;;;4.80;;
18505;SDS011;9382;53.242;10.438;2023-02-01T01:10:39;31.77;;;5.80;;
18505;SDS011;9382;53.242;10.438;2023-02-01T01:13:06;28.47;;;5.87;;
18505;SDS011;9382;53.242;10.438;2023-02-01T01:15:36;25.07;;;5.20;;
18505;SDS011;9382;53.242;10.438;2023-02-01T01:18:03;30.53;;;6.53;;
18505;SDS011;9382;53.242;10.438;2023-02-01T01:20:31;32.27;;;6.23;;
18505;SDS011;9382;53.242;10.438;2023-02-01T01:23:00;28.60;;;5.80;;
18505;SDS011;9382;53.242;10.438;2023-02-01T01:25:27;25.07;;;6.00;;
18505;SDS011;9382;53.242;10.438;2023-02-01T01:27:54;32.83;;;6.50;;
18505;SDS011;9382;53.242;10.438;2023-02-01T01:30:20;31.20;;;5.77;;
18505;SDS011;9382;53.242;10.438;2023-02-01T01:32:49;30.97;;;5.93;;
18505;SDS011;9382;53.242;10.438;2023-02-01T01:35:16;34.57;;;6.13;;
18505;SDS011;9382;53.242;10.438;2023-02-01T01:37:42;28.90;;;6.03;;
18505;SDS011;9382;53.242;10.438;2023-02-01T01:40:09;24.13;;;6.00;;
18505;SDS011;9382;53.242;10.438;2023-02-01T01:42:38;30.87;;;6.07;;
18505;SDS011;9382;53.242;10.438;2023-02-01T01:45:07;26.07;;;6.37;;
18505;SDS011;9382;53.242;10.438;2023-02-01T01:47:39;24.23;;;5.80;;
18505;SDS011;9382;53.242;10.438;2023-02-01T01:50:10;25.90;;;5.90;;
18505;SDS011;9382;53.242;10.438;2023-02-01T01:52:39;32.17;;;6.17;;
18505;SDS011;9382;53.242;10.438;2023-02-01T01:55:08;20.93;;;5.83;;
18505;SDS011;9382;53.242;10.438;2023-02-01T01:57:37;30.83;;;6.07;;
18505;SDS011;9382;53.242;10.438;2023-02-01T02:00:08;31.10;;;6.00;;
18505;SDS011;9382;53.242;10.438;2023-02-01T02:02:38;30.60;;;6.50;;
18505;SDS011;9382;53.242;10.438;2023-02-01T02:05:08;33.80;;;6.13;;
18505;SDS011;9382;53.242;10.438;2023-02-01T02:07:39;34.97;;;5.93;;
18505;SDS011;9382;53.242;10.438;2023-02-01T02:10:09;38.17;;;6.47;;
18505;SDS011;9382;53.242;10.438;2023-02-01T02:12:38;22.93;;;5.90;;
18505;SDS011;9382;53.242;10.438;2023-02-01T02:15:07;28.40;;;6.40;;
18505;SDS011;9382;53.242;10.438;2023-02-01T02:17:36;29.70;;;6.13;;
18505;SDS011;9382;53.242;10.438;2023-02-01T02:23:21;29.93;;;6.47;;
18505;SDS011;9382;53.242;10.438;2023-02-01T02:29:20;32.10;;;6.07;;
18505;SDS011;9382;53.242;10.438;2023-02-01T02:32:11;32.63;;;6.83;;
18505;SDS011;9382;53.242;10.438;2023-02-01T02:34:59;32.00;;;6.60;;
18505;SDS011;9382;53.242;10.438;2023-02-01T02:37:33;29.00;;;6.63;;
18505;SDS011;9382;53.242;10.438;2023-02-01T02:40:08;32.77;;;7.23;;
18505;SDS011;9382;53.242;10.438;2023-02-01T02:42:43;30.60;;;6.80;;
18505;SDS011;9382;53.242;10.438;2023-02-01T02:45:35;32.70;;;7.00;;
18505;SDS011;9382;53.242;10.438;2023-02-01T02:48:25;30.60;;;6.47;;
18505;SDS011;9382;53.242;10.438;2023-02-01T02:50:58;34.03;;;6.13;;
18505;SDS011;9382;53.242;10.438;2023-02-01T02:53:46;26.90;;;5.37;;
18505;SDS011;9382;53.242;10.438;2023-02-01T02:56:35;31.60;;;6.07;;
18505;SDS011;9382;53.242;10.438;2023-02-01T02:59:21;30.83;;;6.33;;
18505;SDS011;9382;53.242;10.438;2023-02-01T03:02:08;34.00;;;6.47;;
18505;SDS011;9382;53.242;10.438;2023-02-01T03:04:53;28.83;;;6.00;;
18505;SDS011;9382;53.242;10.438;2023-02-01T03:10:24;32.60;;;6.20;;
18505;SDS011;9382;53.242;10.438;2023-02-01T03:13:00;27.23;;;5.77;;
18505;SDS011;9382;53.242;10.438;2023-02-01T03:15:32;30.40;;;6.43;;
18505;SDS011;9382;53.242;10.438;2023-02-01T03:18:05;30.00;;;6.20;;
18505;SDS011;9382;53.242;10.438;2023-02-01T03:20:38;36.97;;;6.53;;
18505;SDS011;9382;53.242;10.438;2023-02-01T03:23:10;30.83;;;6.83;;
18505;SDS011;9382;53.242;10.438;2023-02-01T03:25:40;34.50;;;6.67;;
18505;SDS011;9382;53.242;10.438;2023-02-01T03:28:09;30.17;;;6.70;;
18505;SDS011;9382;53.242;10.438;2023-02-01T03:30:37;29.90;;;6.33;;
18505;SDS011;9382;53.242;10.438;2023-02-01T03:33:08;32.10;;;6.17;;
18505;SDS011;9382;53.242;10.438;2023-02-01T03:35:47;29.20;;;6.33;;
18505;SDS011;9382;53.242;10.438;2023-02-01T03:38:22;25.70;;;5.83;;
18505;SDS011;9382;53.242;10.438;2023-02-01T03:40:53;25.27;;;5.30;;
18505;SDS011;9382;53.242;10.438;2023-02-01T03:43:27;21.47;;;5.10;;
18505;SDS011;9382;53.242;10.438;2023-02-01T03:46:00;20.27;;;5.20;;
18505;SDS011;9382;53.242;10.438;2023-02-01T03:48:30;24.00;;;5.43;;
18505;SDS011;9382;53.242;10.438;2023-02-01T03:50:59;23.40;;;5.60;;
18505;SDS011;9382;53.242;10.438;2023-02-01T03:53:29;25.67;;;5.70;;
18505;SDS011;9382;53.242;10.438;2023-02-01T03:55:57;30.80;;;5.80;;
18505;SDS011;9382;53.242;10.438;2023-02-01T03:58:24;20.17;;;5.60;;
18505;SDS011;9382;53.242;10.438;2023-02-01T04:00:52;20.13;;;5.07;;
18505;SDS011;9382;53.242;10.438;2023-02-01T04:03:21;16.70;;;3.73;;
18505;SDS011;9382;53.242;10.438;2023-02-01T04:05:48;16.83;;;4.00;;
18505;SDS011;9382;53.242;10.438;2023-02-01T04:08:15;14.23;;;2.70;;
18505;SDS011;9382;53.242;10.438;2023-02-01T04:10:43;15.47;;;3.10;;
18505;SDS011;9382;53.242;10.438;2023-02-01T04:13:10;8.97;;;2.50;;
18505;SDS011;9382;53.242;10.438;2023-02-01T04:15:37;8.13;;;1.90;;
18505;SDS011;9382;53.242;10.438;2023-02-01T04:18:04;5.97;;;2.37;;
18505;SDS011;9382;53.242;10.438;2023-02-01T04:20:31;8.33;;;2.07;;
18505;SDS011;9382;53.242;10.438;2023-02-01T04:22:58;6.13;;;1.97;;
18505;SDS011;9382;53.242;10.438;2023-02-01T04:25:27;9.10;;;2.57;;
18505;SDS011;9382;53.242;10.438;2023-02-01T04:27:55;6.83;;;2.00;;
18505;SDS011;9382;53.242;10.438;2023-02-01T04:30:22;10.57;;;2.20;;
18505;SDS011;9382;53.242;10.438;2023-02-01T04:32:49;5.17;;;1.80;;
18505;SDS011;9382;53.242;10.438;2023-02-01T04:35:16;5.00;;;2.03;;
18505;SDS011;9382;53.242;10.438;2023-02-01T04:37:43;5.97;;;1.97;;
18505;SDS011;9382;53.242;10.438;2023-02-01T04:40:10;7.27;;;1.70;;
18505;SDS011;9382;53.242;10.438;2023-02-01T04:42:37;4.93;;;2.00;;
18505;SDS011;9382;53.242;10.438;2023-02-01T04:45:06;7.67;;;2.13;;
18505;SDS011;9382;53.242;10.438;2023-02-01T04:47:33;6.53;;;2.43;;
18505;SDS011;9382;53.242;10.438;2023-02-01T04:50:00;6.97;;;2.20;;
18505;SDS011;9382;53.242;10.438;2023-02-01T04:52:27;5.60;;;2.10;;
18505;SDS011;9382;53.242;10.438;2023-02-01T04:54:54;8.47;;;2.47;;
18505;SDS011;9382;53.242;10.438;2023-02-01T04:57:22;12.27;;;3.03;;
18505;SDS011;9382;53.242;10.438;2023-02-01T04:59:49;13.50;;;3.07;;
18505;SDS011;9382;53.242;10.438;2023-02-01T05:02:17;11.20;;;2.87;;
18505;SDS011;9382;53.242;10.438;2023-02-01T05:04:44;12.83;;;2.40;;
18505;SDS011;9382;53.242;10.438;2023-02-01T05:07:10;9.20;;;3.23;;
18505;SDS011;9382;53.242;10.438;2023-02-01T05:09:37;10.77;;;2.23;;
18505;SDS011;9382;53.242;10.438;2023-02-01T05:12:04;6.10;;;2.43;;
18505;SDS011;9382;53.242;10.438;2023-02-01T05:14:49;5.23;;;2.43;;
18505;SDS011;9382;53.242;10.438;2023-02-01T05:17:15;8.47;;;2.73;;
18505;SDS011;9382;53.242;10.438;2023-02-01T05:19:43;6.27;;;2.30;;
18505;SDS011;9382;53.242;10.438;2023-02-01T05:22:10;11.23;;;2.67;;
18505;SDS011;9382;53.242;10.438;2023-02-01T05:24:37;4.87;;;2.50;;
18505;SDS011;9382;53.242;10.438;2023-02-01T05:27:04;5.17;;;2.40;;
18505;SDS011;9382;53.242;10.438;2023-02-01T05:29:30;8.07;;;2.50;;
18505;SDS011;9382;53.242;10.438;2023-02-01T05:31:57;8.53;;;2.20;;
18505;SDS011;9382;53.242;10.438;2023-02-01T05:34:25;5.30;;;3.10;;
18505;SDS011;9382;53.242;10.438;2023-02-01T05:36:52;5.10;;;2.47;;
18505;SDS011;9382;53.242;10.438;2023-02-01T05:39:19;9.90;;;3.17;;
18505;SDS011;9382;53.242;10.438;2023-02-01T05:41:45;5.53;;;3.00;;
18505;SDS011;9382;53.242;10.438;2023-02-01T05:44:12;5.83;;;2.80;;
18505;SDS011;9382;53.242;10.438;2023-02-01T05:46:39;9.90;;;2.67;;
18505;SDS011;9382;53.242;10.438;2023-02-01T05:49:06;6.47;;;2.77;;
18505;SDS011;9382;53.242;10.438;2023-02-01T05:51:34;4.27;;;2.60;;
18505;SDS011;9382;53.242;10.438;2023-02-01T05:54:01;5.93;;;2.73;;
18505;SDS011;9382;53.242;10.438;2023-02-01T05:56:28;4.50;;;2.73;;
18505;SDS011;9382;53.242;10.438;2023-02-01T05:58:54;2.27;;;2.10;;
18505;SDS011;9382;53.242;10.438;2023-02-01T06:01:21;5.73;;;2.03;;
18505;SDS011;9382;53.242;10.438;2023-02-01T06:03:48;2.73;;;1.90;;
18505;SDS011;9382;53.242;10.438;2023-02-01T06:06:14;3.57;;;2.00;;
18505;SDS011;9382;53.242;10.438;2023-02-01T06:08:43;4.13;;;1.90;;
18505;SDS011;9382;53.242;10.438;2023-02-01T06:11:09;4.57;;;2.10;;
18505;SDS011;9382;53.242;10.438;2023-02-01T06:13:36;7.10;;;2.20;;
18505;SDS011;9382;53.242;10.438;2023-02-01T06:16:04;4.40;;;2.20;;
18505;SDS011;9382;53.242;10.438;2023-02-01T06:18:32;4.20;;;2.17;;
18505;SDS011;9382;53.242;10.438;2023-02-01T06:20:59;5.17;;;1.97;;
18505;SDS011;9382;53.242;10.438;2023-02-01T06:23:26;3.57;;;1.40;;
18505;SDS011;9382;53.242;10.438;2023-02-01T06:25:59;2.50;;;1.40;;
18505;SDS011;9382;53.242;10.438;2023-02-01T06:28:27;3.37;;;1.60;;
18505;SDS011;9382;53.242;10.438;2023-02-01T06:30:53;1.80;;;1.70;;
18505;SDS011;9382;53.242;10.438;2023-02-01T06:33:20;2.80;;;1.60;;
18505;SDS011;9382;53.242;10.438;2023-02-01T06:35:47;4.37;;;1.70;;
18505;SDS011;9382;53.242;10.438;2023-02-01T06:38:14;4.20;;;1.73;;
18505;SDS011;9382;53.242;10.438;2023-02-01T06:40:41;4.37;;;2.00;;
18505;SDS011;9382;53.242;10.438;2023-02-01T06:43:10;4.20;;;1.70;;
18505;SDS011;9382;53.242;10.438;2023-02-01T06:45:36;2.77;;;1.60;;
18505;SDS011;9382;53.242;10.438;2023-02-01T06:48:03;2.83;;;1.70;;
18505;SDS011;9382;53.242;10.438;2023-02-01T06:50:30;3.33;;;1.70;;
18505;SDS011;9382;53.242;10.438;2023-02-01T06:52:57;2.23;;;1.60;;
18505;SDS011;9382;53.242;10.438;2023-02-01T06:55:24;2.83;;;1.90;;
18505;SDS011;9382;53.242;10.438;2023-02-01T06:57:52;3.50;;;2.10;;
18505;SDS011;9382;53.242;10.438;2023-02-01T07:00:22;4.13;;;2.10;;
18505;SDS011;9382;53.242;10.438;2023-02-01T07:02:49;4.90;;;1.90;;
18505;SDS011;9382;53.242;10.438;2023-02-01T07:05:16;4.67;;;2.03;;
18505;SDS011;9382;53.242;10.438;2023-02-01T07:07:43;4.83;;;2.30;;
18505;SDS011;9382;53.242;10.438;2023-02-01T07:10:10;4.00;;;1.90;;
18505;SDS011;9382;53.242;10.438;2023-02-01T07:12:37;9.03;;;2.07;;
18505;SDS011;9382;53.242;10.438;2023-02-01T07:15:05;6.00;;;2.10;;
18505;SDS011;9382;53.242;10.438;2023-02-01T07:17:34;3.83;;;1.80;;
18505;SDS011;9382;53.242;10.438;2023-02-01T07:20:00;4.40;;;2.00;;
18505;SDS011;9382;53.242;10.438;2023-02-01T07:22:27;3.17;;;2.03;;
18505;SDS011;9382;53.242;10.438;2023-02-01T07:24:54;5.50;;;1.80;;
18505;SDS011;9382;53.242;10.438;2023-02-01T07:27:21;5.80;;;2.07;;
18505;SDS011;9382;53.242;10.438;2023-02-01T07:29:49;6.67;;;2.23;;
18505;SDS011;9382;53.242;10.438;2023-02-01T07:32:16;12.83;;;5.77;;
18505;SDS011;9382;53.242;10.438;2023-02-01T07:34:44;10.83;;;4.77;;
18505;SDS011;9382;53.242;10.438;2023-02-01T07:37:11;4.23;;;2.40;;
18505;SDS011;9382;53.242;10.438;2023-02-01T07:39:38;7.70;;;2.40;;
18505;SDS011;9382;53.242;10.438;2023-02-01T07:42:05;12.90;;;3.10;;
18505;SDS011;9382;53.242;10.438;2023-02-01T07:44:32;10.03;;;2.70;;
18505;SDS011;9382;53.242;10.438;2023-02-01T07:46:58;9.53;;;3.00;;
18505;SDS011;9382;53.242;10.438;2023-02-01T07:49:25;13.03;;;3.27;;
18505;SDS011;9382;53.242;10.438;2023-02-01T07:51:53;11.30;;;3.23;;
18505;SDS011;9382;53.242;10.438;2023-02-01T07:54:20;18.97;;;3.87;;
18505;SDS011;9382;53.242;10.438;2023-02-01T07:56:46;17.27;;;4.10;;
18505;SDS011;9382;53.242;10.438;2023-02-01T07:59:13;17.40;;;3.93;;
18505;SDS011;9382;53.242;10.438;2023-02-01T08:01:41;17.60;;;3.83;;
18505;SDS011;9382;53.242;10.438;2023-02-01T08:04:07;17.47;;;3.77;;
18505;SDS011;9382;53.242;10.438;2023-02-01T08:06:36;17.97;;;4.10;;
18505;SDS011;9382;53.242;10.438;2023-02-01T08:09:05;22.20;;;4.73;;
18505;SDS011;9382;53.242;10.438;2023-02-01T08:11:32;24.53;;;4.93;;
18505;SDS011;9382;53.242;10.438;2023-02-01T08:14:01;20.93;;;4.63;;
18505;SDS011;9382;53.242;10.438;2023-02-01T08:16:28;23.50;;;5.40;;
18505;SDS011;9382;53.242;10.438;2023-02-01T08:18:54;22.27;;;5.00;;
18505;SDS011;9382;53.242;10.438;2023-02-01T08:21:22;22.27;;;4.73;;
18505;SDS011;9382;53.242;10.438;2023-02-01T08:23:50;20.80;;;3.77;;
18505;SDS011;9382;53.242;10.438;2023-02-01T08:26:18;26.30;;;4.57;;
18505;SDS011;9382;53.242;10.438;2023-02-01T08:28:47;24.00;;;4.60;;
18505;SDS011;9382;53.242;10.438;2023-02-01T08:31:15;22.50;;;4.17;;
18505;SDS011;9382;53.242;10.438;2023-02-01T08:33:47;22.27;;;4.50;;
18505;SDS011;9382;53.242;10.438;2023-02-01T08:36:16;25.87;;;4.73;;
18505;SDS011;9382;53.242;10.438;2023-02-01T08:38:42;26.77;;;5.67;;
18505;SDS011;9382;53.242;10.438;2023-02-01T08:41:10;26.67;;;5.00;;
18505;SDS011;9382;53.242;10.438;2023-02-01T08:43:40;25.13;;;4.87;;
18505;SDS011;9382;53.242;10.438;2023-02-01T08:46:07;19.53;;;4.97;;
18505;SDS011;9382;53.242;10.438;2023-02-01T08:48:35;22.17;;;4.80;;
18505;SDS011;9382;53.242;10.438;2023-02-01T08:51:03;23.30;;;4.73;;
18505;SDS011;9382;53.242;10.438;2023-02-01T08:53:31;25.47;;;5.07;;
18505;SDS011;9382;53.242;10.438;2023-02-01T08:55:58;28.33;;;5.50;;
18505;SDS011;9382;53.242;10.438;2023-02-01T08:58:25;27.13;;;4.60;;
18505;SDS011;9382;53.242;10.438;2023-02-01T09:00:53;33.03;;;5.27;;
18505;SDS011;9382;53.242;10.438;2023-02-01T09:03:20;26.57;;;5.63;;
18505;SDS011;9382;53.242;10.438;2023-02-01T09:05:47;20.60;;;4.93;;
18505;SDS011;9382;53.242;10.438;2023-02-01T09:08:14;27.67;;;4.50;;
18505;SDS011;9382;53.242;10.438;2023-02-01T09:10:41;24.57;;;5.07;;
18505;SDS011;9382;53.242;10.438;2023-02-01T09:13:08;25.80;;;5.40;;
18505;SDS011;9382;53.242;10.438;2023-02-01T09:15:36;23.30;;;5.50;;
18505;SDS011;9382;53.242;10.438;2023-02-01T09:18:04;20.17;;;4.60;;
18505;SDS011;9382;53.242;10.438;2023-02-01T09:20:31;17.90;;;5.23;;
18505;SDS011;9382;53.242;10.438;2023-02-01T09:22:58;17.37;;;4.50;;
18505;SDS011;9382;53.242;10.438;2023-02-01T09:25:25;23.43;;;5.30;;
18505;SDS011;9382;53.242;10.438;2023-02-01T09:27:52;26.03;;;4.67;;
18505;SDS011;9382;53.242;10.438;2023-02-01T09:30:19;21.43;;;5.23;;
18505;SDS011;9382;53.242;10.438;2023-02-01T09:32:46;24.77;;;5.37;;
18505;SDS011;9382;53.242;10.438;2023-02-01T09:35:14;23.50;;;5.07;;
18505;SDS011;9382;53.242;10.438;2023-02-01T09:37:41;20.53;;;5.10;;
18505;SDS011;9382;53.242;10.438;2023-02-01T09:40:10;32.33;;;5.40;;
18505;SDS011;9382;53.242;10.438;2023-02-01T09:42:43;25.10;;;4.80;;
18505;SDS011;9382;53.242;10.438;2023-02-01T09:45:19;32.63;;;6.43;;
18505;SDS011;9382;53.242;10.438;2023-02-01T09:47:51;28.13;;;6.70;;
18505;SDS011;9382;53.242;10.438;2023-02-01T09:50:22;21.53;;;5.90;;
18505;SDS011;9382;53.242;10.438;2023-02-01T09:52:57;22.70;;;5.40;;
18505;SDS011;9382;53.242;10.438;2023-02-01T09:55:29;21.00;;;4.77;;
18505;SDS011;9382;53.242;10.438;2023-02-01T09:58:04;18.47;;;4.07;;
18505;SDS011;9382;53.242;10.438;2023-02-01T10:00:34;20.83;;;4.43;;
18505;SDS011;9382;53.242;10.438;2023-02-01T10:03:03;16.33;;;4.47;;
18505;SDS011;9382;53.242;10.438;2023-02-01T10:05:45;18.73;;;4.57;;
18505;SDS011;9382;53.242;10.438;2023-02-01T10:08:26;20.50;;;4.90;;
18505;SDS011;9382;53.242;10.438;2023-02-01T10:11:02;23.53;;;4.80;;
18505;SDS011;9382;53.242;10.438;2023-02-01T10:13:44;23.53;;;5.20;;
18505;SDS011;9382;53.242;10.438;2023-02-01T10:16:21;20.90;;;4.87;;
18505;SDS011;9382;53.242;10.438;2023-02-01T10:21:53;25.40;;;4.97;;
18505;SDS011;9382;53.242;10.438;2023-02-01T10:27:13;23.40;;;5.40;;
18505;SDS011;9382;53.242;10.438;2023-02-01T10:29:45;22.00;;;5.30;;
18505;SDS011;9382;53.242;10.438;2023-02-01T10:32:16;28.07;;;5.57;;
18505;SDS011;9382;53.242;10.438;2023-02-01T10:34:46;25.83;;;5.00;;
18505;SDS011;9382;53.242;10.438;2023-02-01T10:37:20;24.80;;;5.00;;
18505;SDS011;9382;53.242;10.438;2023-02-01T10:39:54;25.53;;;5.10;;
18505;SDS011;9382;53.242;10.438;2023-02-01T10:42:24;21.10;;;4.60;;
18505;SDS011;9382;53.242;10.438;2023-02-01T10:44:52;26.47;;;5.93;;
18505;SDS011;9382;53.242;10.438;2023-02-01T10:47:21;21.83;;;4.60;;
18505;SDS011;9382;53.242;10.438;2023-02-01T10:49:49;18.50;;;4.60;;
18505;SDS011;9382;53.242;10.438;2023-02-01T10:52:26;23.00;;;5.00;;
18505;SDS011;9382;53.242;10.438;2023-02-01T10:57:55;25.57;;;4.97;;
18505;SDS011;9382;53.242;10.438;2023-02-01T11:00:23;18.93;;;4.13;;
18505;SDS011;9382;53.242;10.438;2023-02-01T11:02:51;24.30;;;4.63;;
18505;SDS011;9382;53.242;10.438;2023-02-01T11:05:19;17.67;;;4.60;;
18505;SDS011;9382;53.242;10.438;2023-02-01T11:07:49;22.20;;;4.80;;
18505;SDS011;9382;53.242;10.438;2023-02-01T11:10:35;20.53;;;4.67;;
18505;SDS011;9382;53.242;10.438;2023-02-01T11:13:04;21.63;;;4.70;;
18505;SDS011;9382;53.242;10.438;2023-02-01T11:15:31;20.30;;;4.77;;
18505;SDS011;9382;53.242;10.438;2023-02-01T11:17:57;22.53;;;4.27;;
18505;SDS011;9382;53.242;10.438;2023-02-01T11:20:41;21.50;;;4.70;;
18505;SDS011;9382;53.242;10.438;2023-02-01T11:23:14;21.27;;;4.57;;
18505;SDS011;9382;53.242;10.438;2023-02-01T11:25:47;23.63;;;4.97;;
18505;SDS011;9382;53.242;10.438;2023-02-01T11:28:15;19.30;;;4.70;;
18505;SDS011;9382;53.242;10.438;2023-02-01T11:30:43;24.20;;;4.93;;
18505;SDS011;9382;53.242;10.438;2023-02-01T11:33:14;17.80;;;4.47;;
18505;SDS011;9382;53.242;10.438;2023-02-01T11:35:43;24.37;;;4.70;;
18505;SDS011;9382;53.242;10.438;2023-02-01T11:38:12;18.03;;;4.77;;
18505;SDS011;9382;53.242;10.438;2023-02-01T11:40:48;17.30;;;4.20;;
18505;SDS011;9382;53.242;10.438;2023-02-01T11:43:17;18.30;;;4.27;;
18505;SDS011;9382;53.242;10.438;2023-02-01T11:45:56;24.63;;;4.63;;
18505;SDS011;9382;53.242;10.438;2023-02-01T11:48:24;22.37;;;4.93;;
18505;SDS011;9382;53.242;10.438;2023-02-01T11:50:54;18.70;;;4.40;;
18505;SDS011;9382;53.242;10.438;2023-02-01T11:53:38;15.23;;;4.10;;
18505;SDS011;9382;53.242;10.438;2023-02-01T11:56:22;17.20;;;4.00;;
18505;SDS011;9382;53.242;10.438;2023-02-01T12:01:59;23.63;;;4.63;;
18505;SDS011;9382;53.242;10.438;2023-02-01T12:04:44;16.33;;;4.57;;
18505;SDS011;9382;53.242;10.438;2023-02-01T12:07:33;19.40;;;4.40;;
18505;SDS011;9382;53.242;10.438;2023-02-01T12:10:20;16.87;;;4.10;;
18505;SDS011;9382;53.242;10.438;2023-02-01T12:13:01;18.27;;;4.50;;
18505;SDS011;9382;53.242;10.438;2023-02-01T12:15:49;17.60;;;4.17;;
18505;SDS011;9382;53.242;10.438;2023-02-01T12:18:35;15.70;;;4.13;;
18505;SDS011;9382;53.242;10.438;2023-02-01T12:21:26;18.13;;;3.80;;
18505;SDS011;9382;53.242;10.438;2023-02-01T12:24:06;15.13;;;3.40;;
18505;SDS011;9382;53.242;10.438;2023-02-01T12:26:52;10.70;;;3.37;;
18505;SDS011;9382;53.242;10.438;2023-02-01T12:29:49;8.57;;;2.70;;
18505;SDS011;9382;53.242;10.438;2023-02-01T12:32:32;7.13;;;2.50;;
18505;SDS011;9382;53.242;10.438;2023-02-01T12:35:13;6.77;;;2.00;;
18505;SDS011;9382;53.242;10.438;2023-02-01T12:37:51;4.90;;;1.90;;
18505;SDS011;9382;53.242;10.438;2023-02-01T12:40:28;4.50;;;2.00;;
18505;SDS011;9382;53.242;10.438;2023-02-01T12:43:07;3.97;;;2.07;;
18505;SDS011;9382;53.242;10.438;2023-02-01T12:45:40;1.93;;;1.63;;
18505;SDS011;9382;53.242;10.438;2023-02-01T12:48:19;4.43;;;1.70;;
18505;SDS011;9382;53.242;10.438;2023-02-01T12:50:53;3.70;;;1.90;;
18505;SDS011;9382;53.242;10.438;2023-02-01T12:53:24;3.47;;;2.10;;
18505;SDS011;9382;53.242;10.438;2023-02-01T12:55:54;3.70;;;1.70;;
18505;SDS011;9382;53.242;10.438;2023-02-01T12:58:25;3.87;;;1.73;;
18505;SDS011;9382;53.242;10.438;2023-02-01T13:00:59;6.30;;;2.10;;
18505;SDS011;9382;53.242;10.438;2023-02-01T13:03:32;4.13;;;2.13;;
18505;SDS011;9382;53.242;10.438;2023-02-01T13:06:04;1.97;;;1.50;;
18505;SDS011;9382;53.242;10.438;2023-02-01T13:08:38;3.57;;;1.80;;
18505;SDS011;9382;53.242;10.438;2023-02-01T13:11:09;2.17;;;1.50;;
18505;SDS011;9382;53.242;10.438;2023-02-01T13:13:44;1.73;;;1.50;;
18505;SDS011;9382;53.242;10.438;2023-02-01T13:16:16;2.27;;;1.43;;
18505;SDS011;9382;53.242;10.438;2023-02-01T13:18:52;1.67;;;1.40;;
18505;SDS011;9382;53.242;10.438;2023-02-01T13:21:24;1.87;;;1.43;;
18505;SDS011;9382;53.242;10.438;2023-02-01T13:23:53;2.40;;;1.27;;
18505;SDS011;9382;53.242;10.438;2023-02-01T13:26:20;1.40;;;1.30;;
18505;SDS011;9382;53.242;10.438;2023-02-01T13:28:49;1.93;;;1.63;;
18505;SDS011;9382;53.242;10.438;2023-02-01T13:31:25;1.40;;;1.40;;
18505;SDS011;9382;53.242;10.438;2023-02-01T13:37:28;3.07;;;2.40;;
18505;SDS011;9382;53.242;10.438;2023-02-01T13:40:10;1.30;;;1.20;;
18505;SDS011;9382;53.242;10.438;2023-02-01T13:42:48;1.40;;;1.30;;
18505;SDS011;9382;53.242;10.438;2023-02-01T13:45:20;1.60;;;1.50;;
18505;SDS011;9382;53.242;10.438;2023-02-01T13:47:50;1.30;;;1.20;;
18505;SDS011;9382;53.242;10.438;2023-02-01T13:50:20;1.30;;;1.20;;
18505;SDS011;9382;53.242;10.438;2023-02-01T13:52:51;1.20;;;1.20;;
18505;SDS011;9382;53.242;10.438;2023-02-01T13:55:27;1.10;;;1.10;;
18505;SDS011;9382;53.242;10.438;2023-02-01T13:58:04;1.27;;;1.20;;
18505;SDS011;9382;53.242;10.438;2023-02-01T14:00:41;1.10;;;1.10;;
18505;SDS011;9382;53.242;10.438;2023-02-01T14:06:16;1.00;;;1.00;;
18505;SDS011;9382;53.242;10.438;2023-02-01T14:09:11;1.10;;;1.10;;
18505;SDS011;9382;53.242;10.438;2023-02-01T14:11:47;0.80;;;0.80;;
18505;SDS011;9382;53.242;10.438;2023-02-01T14:23:26;1.53;;;1.10;;
18505;SDS011;9382;53.242;10.438;2023-02-01T14:26:11;2.63;;;1.30;;
18505;SDS011;9382;53.242;10.438;2023-02-01T14:28:45;3.17;;;1.73;;
18505;SDS011;9382;53.242;10.438;2023-02-01T14:34:08;3.27;;;1.80;;
18505;SDS011;9382;53.242;10.438;2023-02-01T14:36:40;8.27;;;2.50;;
18505;SDS011;9382;53.242;10.438;2023-02-01T14:39:21;4.33;;;1.87;;
18505;SDS011;9382;53.242;10.438;2023-02-01T14:41:52;3.33;;;1.80;;
18505;SDS011;9382;53.242;10.438;2023-02-01T14:44:24;4.73;;;1.97;;
18505;SDS011;9382;53.242;10.438;2023-02-01T14:49:59;6.63;;;2.57;;
18505;SDS011;9382;53.242;10.438;2023-02-01T14:52:40;6.10;;;2.63;;
18505;SDS011;9382;53.242;10.438;2023-02-01T14:55:13;5.23;;;2.13;;
18505;SDS011;9382;53.242;10.438;2023-02-01T14:57:43;4.97;;;2.23;;
18505;SDS011;9382;53.242;10.438;2023-02-01T15:00:17;3.97;;;2.30;;
18505;SDS011;9382;53.242;10.438;2023-02-01T15:02:47;8.40;;;2.60;;
18505;SDS011;9382;53.242;10.438;2023-02-01T15:08:03;10.80;;;2.40;;
18505;SDS011;9382;53.242;10.438;2023-02-01T15:10:40;6.47;;;2.20;;
18505;SDS011;9382;53.242;10.438;2023-02-01T15:13:20;6.50;;;1.83;;
18505;SDS011;9382;53.242;10.438;2023-02-01T15:16:01;6.47;;;1.90;;
18505;SDS011;9382;53.242;10.438;2023-02-01T15:18:28;3.53;;;1.70;;
18505;SDS011;9382;53.242;10.438;2023-02-01T15:20:56;3.97;;;1.60;;
18505;SDS011;9382;53.242;10.438;2023-02-01T15:23:24;7.93;;;1.93;;
18505;SDS011;9382;53.242;10.438;2023-02-01T15:25:53;3.73;;;1.87;;
18505;SDS011;9382;53.242;10.438;2023-02-01T15:28:20;3.73;;;1.67;;
18505;SDS011;9382;53.242;10.438;2023-02-01T15:30:54;6.53;;;2.07;;
18505;SDS011;9382;53.242;10.438;2023-02-01T15:33:23;10.37;;;3.00;;
18505;SDS011;9382;53.242;10.438;2023-02-01T15:35:50;5.47;;;2.27;;
18505;SDS011;9382;53.242;10.438;2023-02-01T15:38:31;5.00;;;2.03;;
18505;SDS011;9382;53.242;10.438;2023-02-01T15:41:02;5.07;;;1.90;;
18505;SDS011;9382;53.242;10.438;2023-02-01T15:43:34;11.70;;;2.47;;
18505;SDS011;9382;53.242;10.438;2023-02-01T15:46:06;5.20;;;2.10;;
18505;SDS011;9382;53.242;10.438;2023-02-01T15:48:35;8.53;;;2.43;;